createdAt,value
2022-09-21T00:01:38.524Z,1.73
2022-09-21T00:07:00.204Z,1.86
2022-09-21T00:12:24.388Z,1.92
2022-09-21T00:17:52.602Z,1.66
2022-09-21T00:23:20.393Z,1.78
2022-09-21T00:28:47.183Z,2.02
2022-09-21T00:34:10.300Z,1.87
2022-09-21T00:39:36.838Z,1.97
2022-09-21T00:45:03.607Z,1.93
2022-09-21T00:50:31.751Z,1.96
2022-09-21T00:55:59.437Z,1.75
2022-09-21T01:01:22.805Z,1.71
2022-09-21T01:06:49.710Z,1.61
2022-09-21T01:12:14.719Z,1.52
2022-09-21T01:17:41.565Z,1.65
2022-09-21T01:23:04.287Z,1.60
2022-09-21T01:28:32.592Z,1.42
2022-09-21T01:34:13.764Z,1.15
2022-09-21T01:39:40.311Z,1.34
2022-09-21T01:45:06.527Z,1.21
2022-09-21T01:50:33.792Z,1.52
2022-09-21T01:55:59.184Z,1.45
2022-09-21T02:01:27.828Z,1.34
2022-09-21T02:06:53.569Z,1.54
2022-09-21T02:12:18.894Z,1.48
2022-09-21T02:17:42.801Z,1.74
2022-09-21T02:23:07.599Z,1.71
2022-09-21T02:28:35.323Z,1.81
2022-09-21T02:34:02.808Z,1.55
2022-09-21T02:39:27.984Z,1.70
2022-09-21T02:44:54.544Z,1.80
2022-09-21T02:50:21.733Z,1.76
2022-09-21T02:55:52.044Z,1.59
2022-09-21T03:01:13.821Z,1.78
2022-09-21T03:06:40.196Z,1.95
2022-09-21T03:12:07.486Z,1.65
2022-09-21T03:17:35.865Z,1.94
2022-09-21T03:23:03.258Z,1.93
2022-09-21T03:28:29.926Z,1.78
2022-09-21T03:33:57.543Z,1.75
2022-09-21T03:39:21.626Z,1.76
2022-09-21T03:44:45.646Z,1.71
2022-09-21T03:50:11.361Z,1.60
2022-09-21T03:55:35.452Z,1.59
2022-09-21T04:01:03.013Z,1.69
2022-09-21T04:06:29.439Z,1.96
2022-09-21T04:11:53.947Z,1.72
2022-09-21T04:17:15.700Z,1.92
2022-09-21T04:22:43.520Z,2.13
2022-09-21T04:28:03.600Z,2.13
2022-09-21T04:33:29.991Z,1.77
2022-09-21T04:38:55.688Z,1.81
2022-09-21T04:44:21.010Z,2.25
2022-09-21T04:49:45.626Z,1.99
2022-09-21T04:55:12.162Z,1.78
2022-09-21T05:00:37.180Z,2.14
2022-09-21T05:06:03.326Z,2.51
2022-09-21T05:11:24.702Z,2.21
2022-09-21T05:16:49.999Z,2.20
2022-09-21T05:22:17.226Z,2.43
2022-09-21T05:27:42.157Z,2.56
2022-09-21T05:33:08.910Z,2.47
2022-09-21T05:38:35.624Z,2.45
2022-09-21T05:44:05.423Z,2.46
2022-09-21T05:49:33.632Z,3.26
2022-09-21T05:55:05.870Z,3.92
2022-09-21T06:00:37.256Z,3.23
2022-09-21T06:05:58.087Z,2.95
2022-09-21T06:11:22.787Z,3.21
2022-09-21T06:16:46.773Z,3.56
2022-09-21T06:22:14.240Z,3.30
2022-09-21T06:27:41.071Z,3.60
2022-09-21T06:33:02.456Z,4.51
2022-09-21T06:38:30.472Z,3.42
2022-09-21T06:43:55.598Z,3.52
2022-09-21T06:49:21.410Z,3.94
2022-09-21T06:54:49.069Z,3.97
2022-09-21T07:00:14.630Z,4.45
2022-09-21T07:05:41.921Z,4.59
2022-09-21T07:11:06.348Z,4.92
2022-09-21T07:16:32.943Z,5.53
2022-09-21T07:22:00.077Z,4.70
2022-09-21T07:27:27.373Z,3.83
2022-09-21T07:32:54.789Z,3.78
2022-09-21T07:38:22.398Z,3.77
2022-09-21T07:43:46.055Z,3.38
2022-09-21T07:49:12.740Z,3.32
2022-09-21T07:54:36.235Z,3.21
2022-09-21T08:00:02.796Z,2.97
2022-09-21T08:05:28.784Z,2.74
2022-09-21T08:10:50.581Z,2.42
2022-09-21T08:16:12.275Z,2.49
2022-09-21T08:21:38.639Z,2.52
2022-09-21T08:27:04.684Z,2.19
2022-09-21T08:32:49.856Z,2.02
2022-09-21T08:37:55.191Z,1.94
2022-09-21T08:43:22.926Z,1.76
2022-09-21T08:48:46.492Z,1.53
2022-09-21T08:54:13.768Z,1.50
2022-09-21T08:59:39.083Z,1.17
2022-09-21T09:05:06.746Z,1.05
2022-09-21T09:10:33.338Z,1.21
2022-09-21T09:15:58.090Z,0.89
2022-09-21T09:21:30.357Z,0.76
2022-09-21T09:26:53.803Z,0.79
2022-09-21T09:32:19.096Z,0.95
2022-09-21T09:37:46.853Z,0.86
2022-09-21T09:43:12.597Z,1.01
2022-09-21T09:48:35.417Z,0.77
2022-09-21T09:54:15.371Z,0.90
2022-09-21T09:59:39.168Z,1.16
2022-09-21T10:05:06.692Z,0.93
2022-09-21T10:10:33.836Z,1.04
2022-09-21T10:16:00.694Z,0.96
2022-09-21T10:21:25.501Z,0.87
2022-09-21T10:26:49.224Z,0.79
2022-09-21T10:32:15.797Z,0.60
2022-09-21T10:37:38.789Z,0.60
2022-09-21T10:43:03.833Z,0.75
2022-09-21T10:48:36.244Z,0.45
2022-09-21T10:54:00.424Z,0.40
2022-09-21T10:59:26.422Z,0.54
2022-09-21T11:04:53.353Z,0.57
2022-09-21T11:10:18.633Z,0.44
2022-09-21T11:15:47.025Z,0.36
2022-09-21T11:21:11.441Z,0.30
2022-09-21T11:26:33.219Z,0.25
2022-09-21T11:31:55.292Z,0.42
2022-09-21T11:37:26.254Z,0.38
2022-09-21T11:42:54.124Z,0.37
2022-09-21T11:48:22.986Z,0.34
2022-09-21T11:53:57.162Z,0.52
2022-09-21T11:59:25.595Z,0.42
2022-09-21T12:04:57.132Z,0.66
2022-09-21T12:10:21.247Z,0.44
2022-09-21T12:16:03.060Z,0.36
2022-09-21T12:21:27.896Z,0.41
2022-09-21T12:26:50.225Z,0.41
2022-09-21T12:32:12.336Z,0.34
2022-09-21T12:37:42.020Z,0.53
2022-09-21T12:43:07.458Z,0.39
2022-09-21T12:48:36.772Z,0.17
2022-09-21T12:54:02.237Z,0.21
2022-09-21T12:59:30.592Z,0.29
2022-09-21T13:04:55.990Z,0.34
2022-09-21T13:10:22.748Z,0.19
2022-09-21T13:15:57.180Z,0.29
2022-09-21T13:21:23.792Z,0.29
2022-09-21T13:26:49.685Z,0.18
2022-09-21T13:32:15.732Z,0.39
2022-09-21T13:37:44.343Z,0.27
2022-09-21T13:43:44.329Z,0.33
2022-09-21T13:49:13.633Z,0.20
2022-09-21T13:54:43.117Z,0.84
2022-09-21T14:00:09.076Z,0.15
2022-09-21T14:05:52.173Z,0.24
2022-09-21T14:11:21.349Z,0.24
2022-09-21T14:16:52.138Z,0.13
2022-09-21T14:22:13.974Z,0.28
2022-09-21T14:28:00.101Z,0.22
2022-09-21T14:33:26.741Z,0.25
2022-09-21T14:39:00.846Z,0.18
2022-09-21T14:44:26.789Z,0.30
2022-09-21T14:49:53.039Z,0.12
2022-09-21T14:55:29.482Z,0.26
2022-09-21T15:00:58.127Z,0.22
2022-09-21T15:06:37.506Z,0.29
2022-09-21T15:12:01.167Z,0.17
2022-09-21T15:17:24.707Z,0.27
2022-09-21T15:22:52.006Z,0.30
2022-09-21T15:28:15.550Z,0.27
2022-09-21T15:33:42.538Z,0.28
2022-09-21T15:39:08.650Z,0.29
2022-09-21T15:44:41.139Z,0.32
2022-09-21T15:50:05.877Z,0.22
2022-09-21T15:55:34.484Z,0.19
2022-09-21T16:00:56.110Z,0.60
2022-09-21T16:06:21.336Z,0.25
2022-09-21T16:11:48.266Z,0.40
2022-09-21T16:17:16.192Z,0.25
2022-09-21T16:22:39.084Z,0.39
2022-09-21T16:28:05.046Z,0.40
2022-09-21T16:33:49.083Z,0.21
2022-09-21T16:39:17.765Z,0.45
2022-09-21T16:44:45.173Z,0.41
2022-09-21T16:50:08.163Z,0.38
2022-09-21T16:55:30.910Z,1.35
2022-09-21T17:01:00.025Z,1.27
2022-09-21T17:06:24.124Z,0.44
2022-09-21T17:11:47.922Z,4.94
2022-09-21T17:17:10.157Z,3.44
2022-09-21T17:22:32.263Z,2.86
2022-09-21T17:27:59.840Z,2.44
2022-09-21T17:33:28.936Z,1.22
2022-09-21T17:38:54.886Z,1.14
2022-09-21T17:44:16.403Z,0.85
2022-09-21T17:50:02.651Z,0.71
2022-09-21T17:55:32.930Z,0.80
2022-09-21T18:01:01.025Z,0.77
2022-09-21T18:06:28.791Z,0.85
2022-09-21T18:11:55.968Z,0.82
2022-09-21T18:17:41.225Z,0.84
2022-09-21T18:23:07.005Z,0.90
2022-09-21T18:28:39.012Z,1.36
2022-09-21T18:34:07.317Z,2.18
2022-09-21T18:39:35.125Z,1.23
2022-09-21T18:44:58.646Z,1.39
2022-09-21T18:50:21.238Z,1.20
2022-09-21T18:55:46.856Z,1.16
2022-09-21T19:01:15.258Z,1.13
2022-09-21T19:06:42.568Z,1.36
2022-09-21T19:12:10.891Z,1.40
2022-09-21T19:17:39.135Z,1.44
2022-09-21T19:23:18.018Z,1.34
2022-09-21T19:28:54.253Z,1.35
2022-09-21T19:34:39.631Z,1.52
2022-09-21T19:40:06.316Z,1.23
2022-09-21T19:45:35.756Z,1.02
2022-09-21T19:50:59.788Z,1.07
2022-09-21T19:56:22.952Z,1.12
2022-09-21T20:01:48.703Z,0.90
2022-09-21T20:07:15.196Z,0.94
2022-09-21T20:12:41.913Z,0.79
2022-09-21T20:18:08.959Z,1.28
2022-09-21T20:23:33.467Z,1.09
2022-09-21T20:28:58.704Z,0.99
2022-09-21T20:34:20.842Z,0.90
2022-09-21T20:39:42.261Z,1.09
2022-09-21T20:45:03.780Z,1.03
2022-09-21T20:50:26.637Z,1.07
2022-09-21T20:55:51.608Z,1.09
2022-09-21T21:01:19.106Z,0.86
2022-09-21T21:06:44.832Z,0.85
2022-09-21T21:12:10.565Z,0.95
2022-09-21T21:17:35.897Z,1.13
2022-09-21T21:23:07.195Z,0.71
2022-09-21T21:28:27.920Z,0.85
2022-09-21T21:33:52.704Z,0.64
2022-09-21T21:39:16.981Z,1.19
2022-09-21T21:44:40.542Z,0.89
2022-09-21T21:50:07.757Z,0.79
2022-09-21T21:55:35.815Z,1.02
2022-09-21T22:01:03.510Z,0.79
2022-09-21T22:06:31.381Z,0.81
2022-09-21T22:11:58.505Z,1.13
2022-09-21T22:17:25.507Z,0.73
2022-09-21T22:22:48.872Z,0.76
2022-09-21T22:28:15.661Z,0.65
2022-09-21T22:33:41.997Z,0.73
2022-09-21T22:39:07.829Z,0.74
2022-09-21T22:44:32.820Z,0.72
2022-09-21T22:49:54.601Z,0.71
2022-09-21T22:55:18.754Z,0.72
2022-09-21T23:00:46.485Z,0.71
2022-09-21T23:06:13.349Z,0.72
2022-09-21T23:11:40.073Z,0.70
2022-09-21T23:17:04.613Z,0.50
2022-09-21T23:22:31.089Z,0.60
2022-09-21T23:27:58.848Z,0.52
2022-09-21T23:33:23.174Z,0.56
2022-09-21T23:38:48.094Z,0.61
2022-09-21T23:44:16.676Z,0.70
2022-09-21T23:49:42.023Z,0.65
2022-09-21T23:55:08.770Z,0.64
